Time;durP1;ratioP1;P1;durP2;ratioP2;P2;SDS_P1;SDS_P2;PMS_P1;PMS_P2;Temp;Humidity;BMP_temperature;BMP_pressure;BME280_temperature;BME280_humidity;BME280_pressure;Samples;Min_cycle;Max_cycle;Signal;HPM_P1;HPM_P2
2023/04/23 00:01:25;;;;;;;;;;;10.30;79.60;;;;;;5030765;28;19919;-72
2023/04/23 00:03:54;;;;;;;;;;;10.30;79.70;;;;;;5030828;28;19981;-72
2023/04/23 00:06:21;;;;;;;;;;;10.30;79.70;;;;;;5012733;28;19913;-71
2023/04/23 00:08:47;;;;;;;;;;;10.20;79.70;;;;;;5012865;28;20386;-71
2023/04/23 00:11:12;;;;;;;;;;;10.10;80.00;;;;;;5030670;28;19923;-71
2023/04/23 00:13:38;;;;;;;;;;;10.10;80.10;;;;;;5030557;28;19967;-71
2023/04/23 00:16:04;;;;;;;;;;;10.10;80.10;;;;;;5012392;28;20328;-71
2023/04/23 00:18:30;;;;;;;;;;;10.20;80.10;;;;;;5030415;28;19948;-71
2023/04/23 00:20:56;;;;;;;;;;;10.20;79.90;;;;;;5012599;28;20036;-71
2023/04/23 00:23:21;;;;;;;;;;;10.30;79.90;;;;;;5030567;28;19948;-72
2023/04/23 00:25:48;;;;;;;;;;;10.20;79.70;;;;;;5030308;28;19917;-71
2023/04/23 00:28:15;;;;;;;;;;;10.20;79.60;;;;;;5030252;28;19944;-71
2023/04/23 00:30:40;;;;;;;;;;;10.20;79.50;;;;;;5030188;28;19959;-72
2023/04/23 00:33:06;;;;;;;;;;;10.10;79.70;;;;;;5030011;28;20008;-72
2023/04/23 00:35:31;;;;;;;;;;;10.00;79.90;;;;;;5029839;28;20431;-71
2023/04/23 00:37:57;;;;;;;;;;;10.00;80.00;;;;;;5030086;28;19920;-71
2023/04/23 00:40:23;;;;;;;;;;;10.00;79.90;;;;;;5012332;28;20055;-72
2023/04/23 00:42:51;;;;;;;;;;;10.00;79.90;;;;;;5030025;28;19945;-72
2023/04/23 00:45:16;;;;;;;;;;;10.00;79.90;;;;;;5030103;28;19919;-72
2023/04/23 00:47:42;;;;;;;;;;;10.00;79.80;;;;;;5029742;28;19913;-72
2023/04/23 00:50:08;;;;;;;;;;;10.10;79.80;;;;;;5029862;28;20281;-72
2023/04/23 00:52:34;;;;;;;;;;;10.10;79.70;;;;;;5029928;28;20004;-71
2023/04/23 00:55:00;;;;;;;;;;;10.10;79.60;;;;;;5029927;28;19917;-72
2023/04/23 00:57:26;;;;;;;;;;;10.10;79.50;;;;;;5029970;28;20384;-71
2023/04/23 00:59:54;;;;;;;;;;;10.10;79.50;;;;;;5029942;28;20361;-71
2023/04/23 01:02:20;;;;;;;;;;;10.10;79.50;;;;;;5029786;28;19917;-71
2023/04/23 01:04:50;;;;;;;;;;;10.10;79.40;;;;;;5029677;28;19909;-71
2023/04/23 01:07:15;;;;;;;;;;;10.00;79.30;;;;;;5029435;28;19913;-72
2023/04/23 01:09:42;;;;;;;;;;;10.00;79.30;;;;;;5012014;28;19966;-71
2023/04/23 01:12:08;;;;;;;;;;;10.00;79.30;;;;;;5029580;28;19909;-71
2023/04/23 01:14:35;;;;;;;;;;;10.00;79.30;;;;;;5029435;28;19975;-72
2023/04/23 01:17:01;;;;;;;;;;;9.90;79.20;;;;;;5029468;28;19913;-72
2023/04/23 01:19:27;;;;;;;;;;;9.90;79.30;;;;;;5029371;28;19958;-72
2023/04/23 01:21:53;;;;;;;;;;;9.90;79.30;;;;;;5029405;28;19936;-72
2023/04/23 01:24:18;;;;;;;;;;;9.90;79.50;;;;;;5029400;28;20285;-72
2023/04/23 01:26:44;;;;;;;;;;;9.90;79.50;;;;;;5029180;28;19917;-72
2023/04/23 01:29:10;;;;;;;;;;;9.90;79.70;;;;;;5029063;28;19920;-72
2023/04/23 01:31:36;;;;;;;;;;;9.80;79.60;;;;;;5011462;28;19936;-72
2023/04/23 01:34:01;;;;;;;;;;;9.80;79.70;;;;;;5029041;28;20022;-72
2023/04/23 01:36:27;;;;;;;;;;;9.70;79.80;;;;;;5028882;28;20437;-71
2023/04/23 01:38:53;;;;;;;;;;;9.60;79.90;;;;;;5028966;28;19913;-72
2023/04/23 01:41:21;;;;;;;;;;;9.60;80.00;;;;;;5029030;28;20386;-72
2023/04/23 01:43:46;;;;;;;;;;;9.60;80.10;;;;;;5029064;28;19925;-72
2023/04/23 01:46:12;;;;;;;;;;;9.60;80.00;;;;;;5028334;28;19913;-72
2023/04/23 01:48:38;;;;;;;;;;;9.50;80.00;;;;;;5028725;28;19913;-72
2023/04/23 01:51:03;;;;;;;;;;;9.50;79.90;;;;;;5028819;28;19916;-72
2023/04/23 01:53:29;;;;;;;;;;;9.50;79.80;;;;;;5028824;28;19924;-72
2023/04/23 01:55:55;;;;;;;;;;;9.60;79.80;;;;;;5028500;28;19983;-71
2023/04/23 01:58:22;;;;;;;;;;;9.50;79.80;;;;;;5011027;28;19921;-71
2023/04/23 02:00:48;;;;;;;;;;;9.60;79.90;;;;;;5010789;28;19913;-71
2023/04/23 02:03:13;;;;;;;;;;;9.60;79.80;;;;;;5028087;28;20008;-71
2023/04/23 02:05:39;;;;;;;;;;;9.60;79.70;;;;;;5028642;28;20011;-72
2023/04/23 02:08:05;;;;;;;;;;;9.70;79.70;;;;;;5028421;28;19967;-72
2023/04/23 02:10:31;;;;;;;;;;;9.70;79.70;;;;;;5010788;28;20025;-72
2023/04/23 02:12:57;;;;;;;;;;;9.70;79.60;;;;;;4994320;28;19928;-72
2023/04/23 02:15:23;;;;;;;;;;;9.70;79.50;;;;;;5028272;28;20018;-71
2023/04/23 02:17:51;;;;;;;;;;;9.70;79.50;;;;;;5028216;28;20433;-72
2023/04/23 02:20:16;;;;;;;;;;;9.70;79.50;;;;;;5028500;28;19968;-72
2023/04/23 02:22:42;;;;;;;;;;;9.60;79.50;;;;;;5028234;28;19949;-71
2023/04/23 02:25:08;;;;;;;;;;;9.50;79.40;;;;;;5010585;28;20401;-71
2023/04/23 02:27:34;;;;;;;;;;;9.50;79.30;;;;;;5028428;28;19910;-72
2023/04/23 02:29:59;;;;;;;;;;;9.40;79.30;;;;;;5028201;28;19916;-72
2023/04/23 02:32:26;;;;;;;;;;;9.40;79.30;;;;;;5027840;28;20014;-71
2023/04/23 02:34:52;;;;;;;;;;;9.40;79.30;;;;;;5028168;28;19925;-72
2023/04/23 02:37:18;;;;;;;;;;;9.40;79.40;;;;;;5027934;28;20303;-72
2023/04/23 02:39:43;;;;;;;;;;;9.30;79.40;;;;;;5027994;28;19957;-71
2023/04/23 02:42:09;;;;;;;;;;;9.40;79.50;;;;;;5028062;28;19916;-72
2023/04/23 02:44:35;;;;;;;;;;;9.40;79.50;;;;;;5027816;28;19913;-72
2023/04/23 02:47:00;;;;;;;;;;;9.30;79.40;;;;;;5027878;28;19940;-71
2023/04/23 02:49:26;;;;;;;;;;;9.40;79.50;;;;;;5010373;28;19967;-72
2023/04/23 02:51:52;;;;;;;;;;;9.40;79.50;;;;;;5027948;28;19913;-72
2023/04/23 02:54:17;;;;;;;;;;;9.40;79.40;;;;;;5027933;28;19920;-72
2023/04/23 02:56:43;;;;;;;;;;;9.40;79.40;;;;;;5027732;28;19976;-72
2023/04/23 02:59:09;;;;;;;;;;;9.30;79.50;;;;;;5030897;28;20413;-72
2023/04/23 03:01:35;;;;;;;;;;;9.30;79.50;;;;;;5031987;28;20228;-72
2023/04/23 03:04:00;;;;;;;;;;;9.30;79.60;;;;;;5014447;28;20289;-72
2023/04/23 03:06:26;;;;;;;;;;;9.20;79.60;;;;;;5031890;28;19959;-72
2023/04/23 03:08:52;;;;;;;;;;;9.10;79.70;;;;;;5031904;28;19966;-71
2023/04/23 03:11:17;;;;;;;;;;;9.10;79.80;;;;;;5031763;28;19963;-72
2023/04/23 03:13:43;;;;;;;;;;;9.10;79.80;;;;;;5031809;28;19913;-72
2023/04/23 03:16:08;;;;;;;;;;;9.10;79.80;;;;;;5031528;28;19913;-72
2023/04/23 03:18:34;;;;;;;;;;;9.10;79.70;;;;;;5031614;28;20250;-72
2023/04/23 03:21:00;;;;;;;;;;;9.10;79.50;;;;;;5031641;28;20317;-72
2023/04/23 03:23:25;;;;;;;;;;;9.20;79.50;;;;;;5031658;28;20010;-72
2023/04/23 03:25:51;;;;;;;;;;;9.10;79.40;;;;;;5031431;28;20317;-72
2023/04/23 03:28:16;;;;;;;;;;;9.10;79.50;;;;;;5031474;28;19920;-72
2023/04/23 03:30:42;;;;;;;;;;;9.00;79.50;;;;;;5031391;28;20243;-71
2023/04/23 03:33:08;;;;;;;;;;;9.10;79.50;;;;;;5031381;28;19955;-72
2023/04/23 03:35:33;;;;;;;;;;;9.10;79.50;;;;;;5031319;28;19936;-72
2023/04/23 03:37:59;;;;;;;;;;;9.10;79.50;;;;;;5031213;28;20000;-72
2023/04/23 03:40:25;;;;;;;;;;;9.10;79.60;;;;;;5031243;28;20286;-72
2023/04/23 03:42:50;;;;;;;;;;;9.10;79.60;;;;;;5013583;28;19948;-72
2023/04/23 03:45:16;;;;;;;;;;;9.10;79.50;;;;;;5031252;28;20020;-72
2023/04/23 03:47:42;;;;;;;;;;;9.10;79.50;;;;;;5031034;28;19962;-72
2023/04/23 03:50:08;;;;;;;;;;;9.10;79.70;;;;;;5031119;28;19916;-72
2023/04/23 03:52:34;;;;;;;;;;;9.10;79.70;;;;;;5031258;28;19909;-72
2023/04/23 03:54:59;;;;;;;;;;;9.10;79.70;;;;;;5030816;28;19959;-71
2023/04/23 03:57:25;;;;;;;;;;;9.10;79.70;;;;;;5030689;28;19913;-71
2023/04/23 03:59:51;;;;;;;;;;;9.10;79.70;;;;;;5013122;28;19921;-74
2023/04/23 04:02:16;;;;;;;;;;;9.00;79.70;;;;;;5031402;28;19909;-72
2023/04/23 04:04:44;;;;;;;;;;;9.00;79.80;;;;;;5030790;28;20010;-72
2023/04/23 04:07:10;;;;;;;;;;;9.00;79.90;;;;;;5030886;28;20128;-72
2023/04/23 04:09:36;;;;;;;;;;;9.00;79.90;;;;;;5030157;28;19916;-72
2023/04/23 04:12:03;;;;;;;;;;;9.00;80.00;;;;;;5030634;28;19972;-72
2023/04/23 04:14:30;;;;;;;;;;;9.00;79.90;;;;;;5012857;28;19913;-72
2023/04/23 04:16:55;;;;;;;;;;;9.10;79.90;;;;;;5030491;28;19968;-71
2023/04/23 04:19:21;;;;;;;;;;;9.00;79.90;;;;;;5030830;28;20002;-72
2023/04/23 04:21:47;;;;;;;;;;;9.00;79.90;;;;;;5030492;28;20435;-72
2023/04/23 04:24:13;;;;;;;;;;;9.10;79.90;;;;;;5030484;28;20216;-72
2023/04/23 04:26:39;;;;;;;;;;;9.10;79.70;;;;;;5030302;28;19917;-72
2023/04/23 04:29:04;;;;;;;;;;;9.10;79.50;;;;;;5030351;28;19913;-72
2023/04/23 04:31:31;;;;;;;;;;;9.10;79.30;;;;;;5012674;28;19913;-72
2023/04/23 04:33:57;;;;;;;;;;;9.10;79.20;;;;;;5030189;28;19929;-72
2023/04/23 04:36:27;;;;;;;;;;;9.10;79.20;;;;;;5030186;28;19920;-72
2023/04/23 04:38:59;;;;;;;;;;;9.10;79.30;;;;;;5030226;28;19910;-71
2023/04/23 04:41:25;;;;;;;;;;;9.10;79.30;;;;;;5030207;28;19910;-71
2023/04/23 04:43:51;;;;;;;;;;;9.00;79.30;;;;;;5029887;28;19917;-71
2023/04/23 04:46:19;;;;;;;;;;;9.00;79.50;;;;;;5029767;28;19963;-72
2023/04/23 04:48:45;;;;;;;;;;;9.00;79.60;;;;;;5029750;28;19916;-72
2023/04/23 04:51:11;;;;;;;;;;;9.00;79.70;;;;;;5012023;28;19921;-71
2023/04/23 04:53:36;;;;;;;;;;;9.00;79.70;;;;;;5029801;28;19913;-72
2023/04/23 04:56:02;;;;;;;;;;;9.00;79.70;;;;;;5029714;28;20289;-71
2023/04/23 04:58:27;;;;;;;;;;;9.00;79.70;;;;;;5011858;28;19964;-72
2023/04/23 05:00:54;;;;;;;;;;;9.10;79.80;;;;;;5029587;28;20397;-72
2023/04/23 05:03:20;;;;;;;;;;;9.00;79.80;;;;;;5029773;28;19983;-72
2023/04/23 05:05:47;;;;;;;;;;;9.10;79.90;;;;;;5012054;28;20370;-72
2023/04/23 05:08:15;;;;;;;;;;;9.10;79.90;;;;;;5029647;28;20389;-72
2023/04/23 05:10:41;;;;;;;;;;;9.10;79.80;;;;;;5029614;28;20404;-71
2023/04/23 05:13:07;;;;;;;;;;;9.10;79.80;;;;;;5029582;28;19949;-71
2023/04/23 05:15:32;;;;;;;;;;;9.10;79.80;;;;;;5011545;28;20308;-71
2023/04/23 05:17:58;;;;;;;;;;;9.10;79.90;;;;;;5029395;28;20251;-71
2023/04/23 05:20:24;;;;;;;;;;;9.20;79.90;;;;;;5028577;28;19967;-71
2023/04/23 05:22:49;;;;;;;;;;;9.20;79.90;;;;;;5029366;28;20266;-72
2023/04/23 05:25:15;;;;;;;;;;;9.20;79.90;;;;;;5011555;28;19917;-71
2023/04/23 05:27:40;;;;;;;;;;;9.20;79.90;;;;;;5029131;28;19917;-72
2023/04/23 05:30:08;;;;;;;;;;;9.20;80.10;;;;;;5029224;28;19924;-72
2023/04/23 05:32:34;;;;;;;;;;;9.20;80.10;;;;;;5029084;28;19917;-72
2023/04/23 05:35:01;;;;;;;;;;;9.20;80.20;;;;;;5029144;28;19929;-72
2023/04/23 05:37:27;;;;;;;;;;;9.20;80.20;;;;;;5029011;28;19917;-72
2023/04/23 05:39:56;;;;;;;;;;;9.30;80.60;;;;;;5028164;28;20290;-72
2023/04/23 05:42:21;;;;;;;;;;;9.30;80.10;;;;;;5011327;28;20381;-72
2023/04/23 05:44:47;;;;;;;;;;;9.40;80.00;;;;;;5028988;28;19963;-72
2023/04/23 05:47:13;;;;;;;;;;;9.40;79.90;;;;;;5028966;28;20354;-72
2023/04/23 05:49:38;;;;;;;;;;;9.40;79.90;;;;;;5029154;28;20253;-72
2023/04/23 05:52:04;;;;;;;;;;;9.50;79.80;;;;;;5028788;28;19940;-72
2023/04/23 05:54:30;;;;;;;;;;;9.40;79.80;;;;;;5028785;28;19909;-72
2023/04/23 05:56:55;;;;;;;;;;;9.40;79.90;;;;;;5028559;28;19913;-72
2023/04/23 05:59:21;;;;;;;;;;;9.40;79.90;;;;;;5028547;28;19917;-72
2023/04/23 06:01:47;;;;;;;;;;;9.30;80.00;;;;;;5028766;28;20280;-72
2023/04/23 06:04:12;;;;;;;;;;;9.30;80.20;;;;;;5010892;28;19909;-72
2023/04/23 06:06:38;;;;;;;;;;;9.30;80.30;;;;;;5028548;28;19955;-72
2023/04/23 06:09:04;;;;;;;;;;;9.40;80.40;;;;;;5028523;28;19913;-72
2023/04/23 06:11:31;;;;;;;;;;;9.40;80.40;;;;;;5010546;28;19983;-71
2023/04/23 06:13:56;;;;;;;;;;;9.50;80.40;;;;;;5028499;28;20003;-71
2023/04/23 06:16:22;;;;;;;;;;;9.50;80.60;;;;;;5028393;28;20236;-72
2023/04/23 06:18:48;;;;;;;;;;;9.60;80.60;;;;;;5010819;28;19920;-72
2023/04/23 06:21:14;;;;;;;;;;;9.70;81.10;;;;;;5028242;28;19913;-72
2023/04/23 06:23:39;;;;;;;;;;;9.70;80.80;;;;;;5028115;28;19920;-72
2023/04/23 06:26:05;;;;;;;;;;;9.90;80.80;;;;;;5028120;28;19917;-72
2023/04/23 06:28:30;;;;;;;;;;;10.10;80.80;;;;;;5028068;28;20028;-72
2023/04/23 06:30:56;;;;;;;;;;;10.20;80.80;;;;;;5028427;28;19913;-71
2023/04/23 06:33:21;;;;;;;;;;;10.30;80.80;;;;;;5027743;28;20032;-72
2023/04/23 06:35:47;;;;;;;;;;;10.30;80.80;;;;;;5010172;28;20422;-72
2023/04/23 06:38:12;;;;;;;;;;;10.40;80.70;;;;;;5010263;28;19914;-72
2023/04/23 06:40:38;;;;;;;;;;;10.40;80.50;;;;;;5028412;28;19917;-72
2023/04/23 06:43:04;;;;;;;;;;;10.30;80.60;;;;;;5027965;28;19967;-73
2023/04/23 06:45:30;;;;;;;;;;;10.30;80.60;;;;;;5028191;28;19949;-72
2023/04/23 06:47:56;;;;;;;;;;;10.30;80.50;;;;;;5027921;28;19976;-72
2023/04/23 06:50:22;;;;;;;;;;;10.30;80.70;;;;;;5027866;28;20445;-73
2023/04/23 06:52:48;;;;;;;;;;;10.30;80.90;;;;;;5027947;28;19959;-73
2023/04/23 06:55:13;;;;;;;;;;;10.40;81.10;;;;;;5027652;28;19913;-72
2023/04/23 06:57:39;;;;;;;;;;;10.60;81.30;;;;;;5027854;28;20378;-72
2023/04/23 07:00:09;;;;;;;;;;;11.00;81.50;;;;;;5027736;28;19909;-73
2023/04/23 07:02:35;;;;;;;;;;;11.30;81.40;;;;;;5027553;28;19913;-72
2023/04/23 07:05:01;;;;;;;;;;;11.80;81.10;;;;;;5010182;28;19918;-73
2023/04/23 07:07:27;;;;;;;;;;;11.90;80.60;;;;;;5009978;28;19924;-73
2023/04/23 07:09:52;;;;;;;;;;;11.90;80.50;;;;;;5027517;28;20461;-73
2023/04/23 07:12:18;;;;;;;;;;;11.80;80.50;;;;;;5027570;28;19917;-73
2023/04/23 07:14:43;;;;;;;;;;;11.70;80.60;;;;;;5009910;28;19916;-73
2023/04/23 07:17:10;;;;;;;;;;;11.50;80.70;;;;;;5027487;28;20008;-73
2023/04/23 07:19:36;;;;;;;;;;;11.50;81.00;;;;;;5027696;28;19910;-73
2023/04/23 07:22:01;;;;;;;;;;;11.50;81.20;;;;;;5027608;28;19936;-72
2023/04/23 07:24:27;;;;;;;;;;;11.60;81.30;;;;;;5009760;28;19909;-72
2023/04/23 07:26:53;;;;;;;;;;;11.70;81.50;;;;;;5027420;28;19964;-73
2023/04/23 07:29:18;;;;;;;;;;;11.90;81.50;;;;;;5027429;28;19913;-72
2023/04/23 07:31:45;;;;;;;;;;;12.00;81.40;;;;;;5027214;28;19947;-72
2023/04/23 07:34:11;;;;;;;;;;;12.10;82.00;;;;;;5027096;28;19929;-73
2023/04/23 07:36:36;;;;;;;;;;;12.30;81.40;;;;;;5027076;28;19963;-73
2023/04/23 07:39:03;;;;;;;;;;;12.50;81.40;;;;;;5027507;28;19917;-73
2023/04/23 07:41:28;;;;;;;;;;;12.60;81.30;;;;;;5027520;28;19912;-73
2023/04/23 07:43:54;;;;;;;;;;;13.00;82.40;;;;;;5027977;28;20388;-73
2023/04/23 07:46:20;;;;;;;;;;;14.00;83.00;;;;;;5030824;28;20395;-73
2023/04/23 07:48:46;;;;;;;;;;;15.10;83.20;;;;;;5030910;28;19999;-73
2023/04/23 07:51:11;;;;;;;;;;;16.30;83.30;;;;;;5030569;28;19967;-73
2023/04/23 07:53:37;;;;;;;;;;;17.20;82.60;;;;;;5030841;28;19920;-73
2023/04/23 07:56:02;;;;;;;;;;;18.10;82.50;;;;;;5030593;28;19924;-73
2023/04/23 07:58:28;;;;;;;;;;;19.00;82.50;;;;;;5030610;28;19913;-73
2023/04/23 08:00:53;;;;;;;;;;;19.30;81.70;;;;;;5030370;28;19921;-73
2023/04/23 08:03:19;;;;;;;;;;;19.70;82.40;;;;;;5030635;28;19952;-73
2023/04/23 08:05:45;;;;;;;;;;;19.70;81.30;;;;;;5030495;28;19931;-73
2023/04/23 08:08:11;;;;;;;;;;;19.60;82.40;;;;;;5030473;28;19993;-73
2023/04/23 08:10:37;;;;;;;;;;;20.20;83.00;;;;;;5030250;28;20324;-72
2023/04/23 08:13:02;;;;;;;;;;;20.90;82.90;;;;;;5030249;28;19917;-73
2023/04/23 08:15:28;;;;;;;;;;;21.70;82.80;;;;;;5030176;28;20010;-73
2023/04/23 08:17:53;;;;;;;;;;;22.40;82.40;;;;;;5030190;28;20036;-73
2023/04/23 08:20:19;;;;;;;;;;;22.90;82.50;;;;;;5030313;28;19979;-73
2023/04/23 08:22:45;;;;;;;;;;;23.20;82.30;;;;;;5030208;28;19909;-73
2023/04/23 08:25:11;;;;;;;;;;;23.30;83.20;;;;;;5030266;28;19976;-73
2023/04/23 08:27:37;;;;;;;;;;;23.50;83.00;;;;;;5029845;28;19948;-72
2023/04/23 08:30:03;;;;;;;;;;;23.10;82.00;;;;;;5030168;28;19952;-72
2023/04/23 08:32:29;;;;;;;;;;;22.60;82.00;;;;;;5030049;28;19917;-73
2023/04/23 08:34:55;;;;;;;;;;;22.20;82.50;;;;;;5011981;28;20004;-72
2023/04/23 08:37:20;;;;;;;;;;;22.60;83.90;;;;;;5029521;28;19917;-72
2023/04/23 08:39:46;;;;;;;;;;;22.60;82.80;;;;;;5029547;28;19918;-73
2023/04/23 08:42:22;;;;;;;;;;;21.80;82.10;;;;;;5029358;28;19913;-73
2023/04/23 08:44:50;;;;;;;;;;;21.30;83.30;;;;;;5030149;28;20237;-73
2023/04/23 08:47:16;;;;;;;;;;;21.60;83.80;;;;;;5029510;28;19909;-73
2023/04/23 08:49:44;;;;;;;;;;;21.40;83.00;;;;;;5029377;28;20380;-73
2023/04/23 08:52:15;;;;;;;;;;;21.80;84.90;;;;;;5029309;28;20281;-73
2023/04/23 08:54:42;;;;;;;;;;;21.80;83.80;;;;;;5029292;28;20008;-73
2023/04/23 08:57:08;;;;;;;;;;;21.50;83.70;;;;;;5029184;28;20346;-73
2023/04/23 08:59:35;;;;;;;;;;;21.20;83.70;;;;;;5029124;28;19924;-73
2023/04/23 09:02:06;;;;;;;;;;;21.30;84.60;;;;;;5029301;28;20267;-73
2023/04/23 09:04:32;;;;;;;;;;;21.10;84.10;;;;;;5029077;28;19913;-73
2023/04/23 09:06:59;;;;;;;;;;;20.50;83.80;;;;;;5028887;28;20362;-73
2023/04/23 09:09:26;;;;;;;;;;;20.00;83.90;;;;;;5028934;28;19914;-72
2023/04/23 09:11:52;;;;;;;;;;;19.40;83.60;;;;;;5028898;28;19915;-72
2023/04/23 09:14:17;;;;;;;;;;;19.00;84.00;;;;;;5011096;28;20023;-73
2023/04/23 09:16:43;;;;;;;;;;;18.80;84.10;;;;;;5028755;28;19921;-73
2023/04/23 09:19:10;;;;;;;;;;;18.40;83.50;;;;;;5028522;28;19914;-73
2023/04/23 09:21:37;;;;;;;;;;;17.80;83.50;;;;;;5028600;28;20369;-72
2023/04/23 09:24:10;;;;;;;;;;;17.30;83.90;;;;;;5028978;28;19967;-72
2023/04/23 09:26:42;;;;;;;;;;;17.00;84.10;;;;;;5028528;28;19971;-73
2023/04/23 09:29:22;;;;;;;;;;;16.70;84.20;;;;;;5028279;28;19956;-72
2023/04/23 09:31:53;;;;;;;;;;;16.60;84.40;;;;;;5010667;28;19925;-73
2023/04/23 09:34:19;;;;;;;;;;;17.10;85.60;;;;;;5010444;28;19951;-73
2023/04/23 09:36:45;;;;;;;;;;;17.70;86.40;;;;;;5010345;28;19917;-73
2023/04/23 09:39:12;;;;;;;;;;;18.90;86.20;;;;;;5010508;28;20301;-73
2023/04/23 09:41:38;;;;;;;;;;;19.10;83.90;;;;;;5028196;28;19955;-73
2023/04/23 09:44:03;;;;;;;;;;;19.00;84.30;;;;;;5028096;28;19917;-73
2023/04/23 09:46:36;;;;;;;;;;;19.20;84.60;;;;;;5028227;28;20534;-73
2023/04/23 09:49:02;;;;;;;;;;;19.00;83.30;;;;;;5028354;28;20344;-72
2023/04/23 09:51:29;;;;;;;;;;;18.30;83.00;;;;;;5028100;28;19938;-72
2023/04/23 09:53:55;;;;;;;;;;;17.60;83.00;;;;;;5027875;28;19919;-72
2023/04/23 09:56:21;;;;;;;;;;;17.00;83.20;;;;;;5027774;28;20437;-73
2023/04/23 09:58:46;;;;;;;;;;;16.40;83.00;;;;;;5027540;28;19921;-72
2023/04/23 10:01:14;;;;;;;;;;;15.90;83.30;;;;;;5027677;28;19962;-72
2023/04/23 10:03:45;;;;;;;;;;;15.60;83.50;;;;;;5027989;28;19936;-72
2023/04/23 10:06:14;;;;;;;;;;;15.50;83.80;;;;;;5027587;28;19940;-72
2023/04/23 10:08:40;;;;;;;;;;;15.70;84.10;;;;;;5026965;28;19922;-72
2023/04/23 10:11:06;;;;;;;;;;;16.00;85.00;;;;;;5027287;28;20398;-72
2023/04/23 10:13:33;;;;;;;;;;;17.00;86.40;;;;;;5027434;28;19909;-72
2023/04/23 10:16:00;;;;;;;;;;;17.60;84.90;;;;;;5027619;28;19924;-72
2023/04/23 10:18:27;;;;;;;;;;;17.60;83.60;;;;;;5009829;28;19968;-72
2023/04/23 10:20:52;;;;;;;;;;;17.50;84.40;;;;;;5027844;28;19960;-72
2023/04/23 10:23:20;;;;;;;;;;;18.40;86.60;;;;;;5027909;28;19959;-72
2023/04/23 10:25:46;;;;;;;;;;;19.40;85.20;;;;;;5027547;28;19943;-73
2023/04/23 10:28:14;;;;;;;;;;;19.20;83.50;;;;;;5027513;28;19909;-73
2023/04/23 10:30:40;;;;;;;;;;;18.90;83.90;;;;;;5027421;28;19959;-73
2023/04/23 10:33:06;;;;;;;;;;;19.70;86.10;;;;;;5027302;28;19927;-73
2023/04/23 10:35:32;;;;;;;;;;;20.30;84.40;;;;;;5027526;28;20010;-73
2023/04/23 10:37:58;;;;;;;;;;;20.00;83.00;;;;;;5027539;28;19913;-73
2023/04/23 10:40:29;;;;;;;;;;;20.00;84.90;;;;;;5027321;28;20304;-73
2023/04/23 10:42:55;;;;;;;;;;;20.90;85.70;;;;;;5027170;28;19913;-72
2023/04/23 10:45:20;;;;;;;;;;;22.30;86.00;;;;;;5027180;28;19919;-72
2023/04/23 10:47:46;;;;;;;;;;;23.50;84.60;;;;;;5027042;28;20381;-73
2023/04/23 10:50:19;;;;;;;;;;;23.50;82.30;;;;;;5009136;28;19916;-73
2023/04/23 10:52:48;;;;;;;;;;;23.30;83.30;;;;;;5027054;28;20000;-73
2023/04/23 10:55:17;;;;;;;;;;;23.60;84.90;;;;;;5026388;28;20361;-73
2023/04/23 10:58:03;;;;;;;;;;;24.40;85.10;;;;;;5026408;28;19913;-72
2023/04/23 11:00:42;;;;;;;;;;;25.20;85.40;;;;;;5026477;28;19996;-72
2023/04/23 11:03:31;;;;;;;;;;;26.20;85.20;;;;;;5026926;28;19909;-73
2023/04/23 11:06:00;;;;;;;;;;;26.70;84.70;;;;;;5020706;28;19963;-73
2023/04/23 11:08:27;;;;;;;;;;;26.70;84.40;;;;;;5026681;28;19909;-73
2023/04/23 11:10:55;;;;;;;;;;;26.50;84.70;;;;;;5026652;28;20000;-73
2023/04/23 11:13:24;;;;;;;;;;;25.80;83.60;;;;;;5026792;28;19913;-72
2023/04/23 11:16:09;;;;;;;;;;;25.00;84.10;;;;;;5026273;28;19917;-72
2023/04/23 11:18:53;;;;;;;;;;;24.30;84.80;;;;;;5027144;28;19956;-73
2023/04/23 11:21:18;;;;;;;;;;;24.00;85.20;;;;;;5030720;28;19910;-72
2023/04/23 11:23:44;;;;;;;;;;;23.50;84.70;;;;;;5030621;28;19925;-73
2023/04/23 11:26:12;;;;;;;;;;;23.00;84.10;;;;;;5030659;28;19959;-72
2023/04/23 11:28:40;;;;;;;;;;;22.70;84.60;;;;;;5030459;28;19944;-72
2023/04/23 11:31:05;;;;;;;;;;;23.30;86.00;;;;;;5030462;28;19913;-73
2023/04/23 11:33:31;;;;;;;;;;;24.00;85.40;;;;;;5012666;28;19926;-72
2023/04/23 11:35:57;;;;;;;;;;;23.50;83.80;;;;;;5030671;28;19913;-73
2023/04/23 11:38:30;;;;;;;;;;;22.60;83.60;;;;;;5031106;28;19923;-72
2023/04/23 11:40:55;;;;;;;;;;;22.10;85.40;;;;;;5030363;28;19921;-72
2023/04/23 11:43:21;;;;;;;;;;;22.10;86.40;;;;;;5030332;28;19917;-72
2023/04/23 11:45:48;;;;;;;;;;;23.00;87.60;;;;;;5030210;28;19924;-73
2023/04/23 11:48:13;;;;;;;;;;;24.10;88.00;;;;;;5030218;28;19916;-72
2023/04/23 11:50:40;;;;;;;;;;;25.50;88.00;;;;;;5030012;28;19913;-72
2023/04/23 11:53:07;;;;;;;;;;;25.70;85.30;;;;;;5012066;28;20308;-72
2023/04/23 11:55:37;;;;;;;;;;;24.90;85.00;;;;;;5029559;28;19962;-72
2023/04/23 11:58:03;;;;;;;;;;;24.50;86.10;;;;;;5029686;28;20322;-72
2023/04/23 12:00:28;;;;;;;;;;;24.80;87.10;;;;;;5029634;28;19916;-72
2023/04/23 12:02:54;;;;;;;;;;;25.30;87.60;;;;;;5029436;28;20334;-72
2023/04/23 12:05:20;;;;;;;;;;;25.50;86.40;;;;;;5011538;28;19920;-72
2023/04/23 12:07:50;;;;;;;;;;;25.40;86.20;;;;;;5011024;28;19991;-72
2023/04/23 12:10:17;;;;;;;;;;;25.60;86.70;;;;;;5029415;28;19917;-72
2023/04/23 12:12:42;;;;;;;;;;;25.90;86.40;;;;;;5029623;28;19920;-70
2023/04/23 12:15:08;;;;;;;;;;;26.00;86.90;;;;;;5029096;28;19917;-73
2023/04/23 12:17:34;;;;;;;;;;;26.20;87.60;;;;;;5029317;28;19916;-73
2023/04/23 12:20:03;;;;;;;;;;;26.40;87.10;;;;;;5029213;28;19913;-73
2023/04/23 12:22:29;;;;;;;;;;;26.20;86.00;;;;;;5029184;28;19909;-73
2023/04/23 12:24:54;;;;;;;;;;;25.70;86.70;;;;;;5011667;28;19941;-73
2023/04/23 12:27:23;;;;;;;;;;;25.50;86.40;;;;;;5029011;28;19949;-73
2023/04/23 12:29:58;;;;;;;;;;;25.30;87.10;;;;;;5028570;28;19996;-71
2023/04/23 12:32:23;;;;;;;;;;;25.30;86.30;;;;;;5028561;28;19925;-71
2023/04/23 12:34:53;;;;;;;;;;;25.60;87.00;;;;;;5028919;28;19924;-71
2023/04/23 12:37:22;;;;;;;;;;;26.10;86.70;;;;;;5028773;28;19996;-71
2023/04/23 12:39:48;;;;;;;;;;;26.40;87.20;;;;;;5010681;28;19909;-70
2023/04/23 12:42:14;;;;;;;;;;;26.70;87.50;;;;;;5010905;28;19913;-71
2023/04/23 12:44:39;;;;;;;;;;;26.70;87.00;;;;;;5028844;28;19920;-71
2023/04/23 12:47:09;;;;;;;;;;;26.30;86.30;;;;;;5028666;28;19967;-71
2023/04/23 12:49:36;;;;;;;;;;;25.80;85.40;;;;;;5028637;28;19913;-71
2023/04/23 12:52:02;;;;;;;;;;;25.00;84.40;;;;;;5028802;28;20362;-71
2023/04/23 12:54:29;;;;;;;;;;;23.80;84.40;;;;;;5029034;28;19920;-71
2023/04/23 12:56:55;;;;;;;;;;;22.60;85.10;;;;;;5028285;28;19917;-71
2023/04/23 12:59:21;;;;;;;;;;;21.80;85.40;;;;;;5027975;28;19974;-70
2023/04/23 13:01:47;;;;;;;;;;;21.00;85.00;;;;;;5028313;28;19917;-71
2023/04/23 13:04:12;;;;;;;;;;;20.00;84.90;;;;;;5028377;28;19909;-71
2023/04/23 13:06:38;;;;;;;;;;;19.10;84.80;;;;;;5028541;28;19920;-72
2023/04/23 13:09:04;;;;;;;;;;;18.20;84.90;;;;;;5028608;28;19915;-71
2023/04/23 13:11:33;;;;;;;;;;;17.40;84.70;;;;;;5028271;28;19913;-73
2023/04/23 13:13:58;;;;;;;;;;;16.70;85.10;;;;;;5028491;28;20388;-73
2023/04/23 13:16:24;;;;;;;;;;;16.20;85.30;;;;;;5028272;28;19917;-73
2023/04/23 13:18:52;;;;;;;;;;;15.90;85.20;;;;;;5010741;28;20297;-73
2023/04/23 13:21:18;;;;;;;;;;;15.70;85.10;;;;;;5028503;28;19970;-73
2023/04/23 13:23:44;;;;;;;;;;;15.60;84.80;;;;;;5028671;28;19917;-73
2023/04/23 13:26:10;;;;;;;;;;;15.60;84.40;;;;;;5028210;28;19963;-73
2023/04/23 13:28:35;;;;;;;;;;;15.80;83.90;;;;;;5028371;28;19959;-73
2023/04/23 13:31:01;;;;;;;;;;;15.90;83.40;;;;;;5028051;28;19945;-73
2023/04/23 13:33:27;;;;;;;;;;;16.10;83.30;;;;;;5028160;28;19921;-74
2023/04/23 13:35:55;;;;;;;;;;;16.30;83.00;;;;;;5028287;28;19971;-72
2023/04/23 13:38:21;;;;;;;;;;;16.50;82.90;;;;;;5028178;28;19921;-72
2023/04/23 13:40:47;;;;;;;;;;;16.70;82.80;;;;;;5028723;28;19913;-72
2023/04/23 13:43:12;;;;;;;;;;;16.90;82.60;;;;;;5027886;28;20364;-72
2023/04/23 13:45:38;;;;;;;;;;;17.00;82.40;;;;;;5028250;28;20021;-72
2023/04/23 13:48:03;;;;;;;;;;;17.00;82.40;;;;;;5027759;28;19913;-73
2023/04/23 13:50:29;;;;;;;;;;;17.10;82.50;;;;;;5028129;28;20039;-72
2023/04/23 13:52:55;;;;;;;;;;;17.40;82.60;;;;;;5027994;28;19920;-72
2023/04/23 13:55:21;;;;;;;;;;;17.60;82.50;;;;;;5027545;28;19921;-72
2023/04/23 13:57:46;;;;;;;;;;;17.80;82.50;;;;;;5028510;28;19921;-72
2023/04/23 14:00:12;;;;;;;;;;;18.00;82.80;;;;;;5027961;28;19913;-72
2023/04/23 14:02:38;;;;;;;;;;;18.30;82.60;;;;;;5027817;28;19940;-72
2023/04/23 14:05:05;;;;;;;;;;;18.60;82.60;;;;;;5027600;28;19996;-73
2023/04/23 14:07:31;;;;;;;;;;;19.10;82.70;;;;;;5027523;28;19921;-72
2023/04/23 14:09:57;;;;;;;;;;;19.40;82.00;;;;;;5027764;28;19951;-72
2023/04/23 14:12:23;;;;;;;;;;;19.40;82.30;;;;;;5027203;28;19960;-73
2023/04/23 14:14:49;;;;;;;;;;;19.60;82.20;;;;;;5010135;28;20018;-72
2023/04/23 14:17:14;;;;;;;;;;;19.80;82.00;;;;;;5027441;28;19932;-73